sensor_id;sensor_type;location;lat;lon;timestamp;temperature;humidity
25556;DHT22;13447;57.174;-2.112;2022-08-14T00:02:01;16.10;99.90
25556;DHT22;13447;57.174;-2.112;2022-08-14T00:04:33;16.00;99.90
25556;DHT22;13447;57.174;-2.112;2022-08-14T00:07:11;16.00;99.90
25556;DHT22;13447;57.174;-2.112;2022-08-14T00:09:41;16.00;99.90
25556;DHT22;13447;57.174;-2.112;2022-08-14T00:12:29;15.90;99.90
25556;DHT22;13447;57.174;-2.112;2022-08-14T00:15:29;15.80;99.90
25556;DHT22;13447;57.174;-2.112;2022-08-14T00:18:12;15.70;99.90
25556;DHT22;13447;57.174;-2.112;2022-08-14T00:20:41;15.70;99.90
25556;DHT22;13447;57.174;-2.112;2022-08-14T00:23:11;15.70;99.90
25556;DHT22;13447;57.174;-2.112;2022-08-14T00:25:45;15.70;99.90
25556;DHT22;13447;57.174;-2.112;2022-08-14T00:28:32;15.60;99.90
25556;DHT22;13447;57.174;-2.112;2022-08-14T00:31:03;15.60;99.90
25556;DHT22;13447;57.174;-2.112;2022-08-14T00:33:32;15.60;99.90
25556;DHT22;13447;57.174;-2.112;2022-08-14T00:36:19;15.70;99.90
25556;DHT22;13447;57.174;-2.112;2022-08-14T00:39:06;15.60;99.90
25556;DHT22;13447;57.174;-2.112;2022-08-14T00:41:35;15.60;99.90
25556;DHT22;13447;57.174;-2.112;2022-08-14T00:44:05;15.60;99.90
25556;DHT22;13447;57.174;-2.112;2022-08-14T00:46:34;15.50;99.90
25556;DHT22;13447;57.174;-2.112;2022-08-14T00:49:04;15.60;99.90
25556;DHT22;13447;57.174;-2.112;2022-08-14T00:51:31;15.60;99.90
25556;DHT22;13447;57.174;-2.112;2022-08-14T00:54:04;15.60;99.90
25556;DHT22;13447;57.174;-2.112;2022-08-14T00:56:47;15.70;99.90
25556;DHT22;13447;57.174;-2.112;2022-08-14T00:59:14;15.70;99.90
25556;DHT22;13447;57.174;-2.112;2022-08-14T01:01:41;15.70;99.90
25556;DHT22;13447;57.174;-2.112;2022-08-14T01:04:10;15.70;99.90
25556;DHT22;13447;57.174;-2.112;2022-08-14T01:06:58;15.70;99.90
25556;DHT22;13447;57.174;-2.112;2022-08-14T01:09:35;15.80;99.90
25556;DHT22;13447;57.174;-2.112;2022-08-14T01:12:04;15.80;99.90
25556;DHT22;13447;57.174;-2.112;2022-08-14T01:14:33;15.80;99.90
25556;DHT22;13447;57.174;-2.112;2022-08-14T01:17:01;15.80;99.90
25556;DHT22;13447;57.174;-2.112;2022-08-14T01:19:29;15.70;99.90
25556;DHT22;13447;57.174;-2.112;2022-08-14T01:22:19;15.70;99.90
25556;DHT22;13447;57.174;-2.112;2022-08-14T01:24:52;15.70;99.90
25556;DHT22;13447;57.174;-2.112;2022-08-14T01:27:21;15.70;99.90
25556;DHT22;13447;57.174;-2.112;2022-08-14T01:29:53;15.60;99.90
25556;DHT22;13447;57.174;-2.112;2022-08-14T01:32:29;15.70;99.90
25556;DHT22;13447;57.174;-2.112;2022-08-14T01:35:03;15.70;99.90
25556;DHT22;13447;57.174;-2.112;2022-08-14T01:37:53;15.70;99.90
25556;DHT22;13447;57.174;-2.112;2022-08-14T01:40:27;15.70;99.90
25556;DHT22;13447;57.174;-2.112;2022-08-14T01:43:13;15.70;99.90
25556;DHT22;13447;57.174;-2.112;2022-08-14T01:45:44;15.70;99.90
25556;DHT22;13447;57.174;-2.112;2022-08-14T01:48:23;15.70;99.90
25556;DHT22;13447;57.174;-2.112;2022-08-14T01:50:51;15.70;99.90
25556;DHT22;13447;57.174;-2.112;2022-08-14T01:53:19;15.60;99.90
25556;DHT22;13447;57.174;-2.112;2022-08-14T01:55:46;15.60;99.90
25556;DHT22;13447;57.174;-2.112;2022-08-14T01:58:17;15.60;99.90
25556;DHT22;13447;57.174;-2.112;2022-08-14T02:00:55;15.70;99.90
25556;DHT22;13447;57.174;-2.112;2022-08-14T02:03:27;15.70;99.90
25556;DHT22;13447;57.174;-2.112;2022-08-14T02:05:58;15.60;99.90
25556;DHT22;13447;57.174;-2.112;2022-08-14T02:08:45;15.60;99.90
25556;DHT22;13447;57.174;-2.112;2022-08-14T02:11:21;15.60;99.90
25556;DHT22;13447;57.174;-2.112;2022-08-14T02:13:56;15.60;99.90
25556;DHT22;13447;57.174;-2.112;2022-08-14T02:16:42;15.60;99.90
25556;DHT22;13447;57.174;-2.112;2022-08-14T02:19:14;15.60;99.90
25556;DHT22;13447;57.174;-2.112;2022-08-14T02:21:44;15.60;99.90
25556;DHT22;13447;57.174;-2.112;2022-08-14T02:24:17;15.60;99.90
25556;DHT22;13447;57.174;-2.112;2022-08-14T02:27:06;15.60;99.90
25556;DHT22;13447;57.174;-2.112;2022-08-14T02:29:53;15.60;99.90
25556;DHT22;13447;57.174;-2.112;2022-08-14T02:32:29;15.60;99.90
25556;DHT22;13447;57.174;-2.112;2022-08-14T02:35:09;15.60;99.90
25556;DHT22;13447;57.174;-2.112;2022-08-14T02:37:47;15.60;99.90
25556;DHT22;13447;57.174;-2.112;2022-08-14T02:40:17;15.60;99.90
25556;DHT22;13447;57.174;-2.112;2022-08-14T02:42:45;15.50;99.90
25556;DHT22;13447;57.174;-2.112;2022-08-14T02:45:21;15.50;99.90
25556;DHT22;13447;57.174;-2.112;2022-08-14T02:47:48;15.50;99.90
25556;DHT22;13447;57.174;-2.112;2022-08-14T02:50:19;15.50;99.90
25556;DHT22;13447;57.174;-2.112;2022-08-14T02:52:53;15.40;99.90
25556;DHT22;13447;57.174;-2.112;2022-08-14T02:55:28;15.40;99.90
25556;DHT22;13447;57.174;-2.112;2022-08-14T02:57:56;15.40;99.90
25556;DHT22;13447;57.174;-2.112;2022-08-14T03:00:30;15.40;99.90
25556;DHT22;13447;57.174;-2.112;2022-08-14T03:02:58;15.40;99.90
25556;DHT22;13447;57.174;-2.112;2022-08-14T03:05:27;15.40;99.90
25556;DHT22;13447;57.174;-2.112;2022-08-14T03:08:06;15.30;99.90
25556;DHT22;13447;57.174;-2.112;2022-08-14T03:10:35;15.30;99.90
25556;DHT22;13447;57.174;-2.112;2022-08-14T03:13:07;15.30;99.90
25556;DHT22;13447;57.174;-2.112;2022-08-14T03:15:47;15.20;99.90
25556;DHT22;13447;57.174;-2.112;2022-08-14T03:18:24;15.30;99.90
25556;DHT22;13447;57.174;-2.112;2022-08-14T03:21:05;15.30;99.90
25556;DHT22;13447;57.174;-2.112;2022-08-14T03:23:34;15.30;99.90
25556;DHT22;13447;57.174;-2.112;2022-08-14T03:26:08;15.30;99.90
25556;DHT22;13447;57.174;-2.112;2022-08-14T03:28:45;15.20;99.90
25556;DHT22;13447;57.174;-2.112;2022-08-14T03:31:13;15.20;99.90
25556;DHT22;13447;57.174;-2.112;2022-08-14T03:33:41;15.10;99.90
25556;DHT22;13447;57.174;-2.112;2022-08-14T03:36:11;15.10;99.90
25556;DHT22;13447;57.174;-2.112;2022-08-14T03:39:03;15.10;99.90
25556;DHT22;13447;57.174;-2.112;2022-08-14T03:41:47;15.10;99.90
25556;DHT22;13447;57.174;-2.112;2022-08-14T03:44:14;15.00;99.90
25556;DHT22;13447;57.174;-2.112;2022-08-14T03:47:01;15.00;99.90
25556;DHT22;13447;57.174;-2.112;2022-08-14T03:49:28;15.00;99.90
25556;DHT22;13447;57.174;-2.112;2022-08-14T03:51:59;14.90;99.90
25556;DHT22;13447;57.174;-2.112;2022-08-14T03:54:50;14.90;99.90
25556;DHT22;13447;57.174;-2.112;2022-08-14T03:57:18;14.90;99.90
25556;DHT22;13447;57.174;-2.112;2022-08-14T03:59:49;14.90;99.90
25556;DHT22;13447;57.174;-2.112;2022-08-14T04:02:16;14.90;99.90
25556;DHT22;13447;57.174;-2.112;2022-08-14T04:05:07;14.80;99.90
25556;DHT22;13447;57.174;-2.112;2022-08-14T04:07:39;14.80;99.90
25556;DHT22;13447;57.174;-2.112;2022-08-14T04:10:25;14.70;99.90
25556;DHT22;13447;57.174;-2.112;2022-08-14T04:13:01;14.70;99.90
25556;DHT22;13447;57.174;-2.112;2022-08-14T04:15:32;14.70;99.90
25556;DHT22;13447;57.174;-2.112;2022-08-14T04:18:19;14.70;99.90
25556;DHT22;13447;57.174;-2.112;2022-08-14T04:20:46;14.70;99.90
25556;DHT22;13447;57.174;-2.112;2022-08-14T04:23:22;14.60;99.90
25556;DHT22;13447;57.174;-2.112;2022-08-14T04:26:01;14.60;99.90
25556;DHT22;13447;57.174;-2.112;2022-08-14T04:28:29;14.50;99.90
25556;DHT22;13447;57.174;-2.112;2022-08-14T04:31:17;14.50;99.90
25556;DHT22;13447;57.174;-2.112;2022-08-14T04:34:05;14.50;99.90
25556;DHT22;13447;57.174;-2.112;2022-08-14T04:36:33;14.40;99.90
25556;DHT22;13447;57.174;-2.112;2022-08-14T04:39:20;14.40;99.90
25556;DHT22;13447;57.174;-2.112;2022-08-14T04:42:12;14.40;99.90
25556;DHT22;13447;57.174;-2.112;2022-08-14T04:44:57;14.40;99.90
25556;DHT22;13447;57.174;-2.112;2022-08-14T04:47:27;14.50;99.90
25556;DHT22;13447;57.174;-2.112;2022-08-14T04:50:19;14.60;99.90
25556;DHT22;13447;57.174;-2.112;2022-08-14T04:53:00;14.60;99.90
25556;DHT22;13447;57.174;-2.112;2022-08-14T04:55:28;14.60;99.90
25556;DHT22;13447;57.174;-2.112;2022-08-14T04:57:56;14.60;99.90
25556;DHT22;13447;57.174;-2.112;2022-08-14T05:00:24;14.70;99.90
25556;DHT22;13447;57.174;-2.112;2022-08-14T05:02:53;14.70;99.90
25556;DHT22;13447;57.174;-2.112;2022-08-14T05:05:23;14.60;99.90
25556;DHT22;13447;57.174;-2.112;2022-08-14T05:07:51;14.60;99.90
25556;DHT22;13447;57.174;-2.112;2022-08-14T05:10:27;14.50;99.90
25556;DHT22;13447;57.174;-2.112;2022-08-14T05:12:58;14.50;99.90
25556;DHT22;13447;57.174;-2.112;2022-08-14T05:15:45;14.60;99.90
25556;DHT22;13447;57.174;-2.112;2022-08-14T05:18:15;14.60;99.90
25556;DHT22;13447;57.174;-2.112;2022-08-14T05:21:05;14.60;99.90
25556;DHT22;13447;57.174;-2.112;2022-08-14T05:23:52;14.60;99.90
25556;DHT22;13447;57.174;-2.112;2022-08-14T05:26:21;14.60;99.90
25556;DHT22;13447;57.174;-2.112;2022-08-14T05:28:48;14.70;99.90
25556;DHT22;13447;57.174;-2.112;2022-08-14T05:31:16;14.70;99.90
25556;DHT22;13447;57.174;-2.112;2022-08-14T05:33:46;14.60;99.90
25556;DHT22;13447;57.174;-2.112;2022-08-14T05:36:23;14.60;99.90
25556;DHT22;13447;57.174;-2.112;2022-08-14T05:38:52;14.60;99.90
25556;DHT22;13447;57.174;-2.112;2022-08-14T05:41:21;14.50;99.90
25556;DHT22;13447;57.174;-2.112;2022-08-14T05:43:48;14.50;99.90
25556;DHT22;13447;57.174;-2.112;2022-08-14T05:46:18;14.50;99.90
25556;DHT22;13447;57.174;-2.112;2022-08-14T05:48:55;14.60;99.90
25556;DHT22;13447;57.174;-2.112;2022-08-14T05:51:25;14.70;99.90
25556;DHT22;13447;57.174;-2.112;2022-08-14T05:53:52;14.70;99.90
25556;DHT22;13447;57.174;-2.112;2022-08-14T05:56:38;14.80;99.90
25556;DHT22;13447;57.174;-2.112;2022-08-14T05:59:05;14.80;99.90
25556;DHT22;13447;57.174;-2.112;2022-08-14T06:01:33;14.80;99.90
25556;DHT22;13447;57.174;-2.112;2022-08-14T06:04:01;14.80;99.90
25556;DHT22;13447;57.174;-2.112;2022-08-14T06:06:30;14.80;99.90
25556;DHT22;13447;57.174;-2.112;2022-08-14T06:09:04;14.80;99.90
25556;DHT22;13447;57.174;-2.112;2022-08-14T06:11:35;14.70;99.90
25556;DHT22;13447;57.174;-2.112;2022-08-14T06:14:03;14.70;99.90
25556;DHT22;13447;57.174;-2.112;2022-08-14T06:16:46;14.80;99.90
25556;DHT22;13447;57.174;-2.112;2022-08-14T06:19:13;14.70;99.90
25556;DHT22;13447;57.174;-2.112;2022-08-14T06:21:44;14.70;99.90
25556;DHT22;13447;57.174;-2.112;2022-08-14T06:24:11;14.80;99.90
25556;DHT22;13447;57.174;-2.112;2022-08-14T06:26:45;14.90;99.90
25556;DHT22;13447;57.174;-2.112;2022-08-14T06:29:30;14.70;99.90
25556;DHT22;13447;57.174;-2.112;2022-08-14T06:31:59;14.80;99.90
25556;DHT22;13447;57.174;-2.112;2022-08-14T06:34:46;14.80;99.90
25556;DHT22;13447;57.174;-2.112;2022-08-14T06:40:13;15.00;99.90
25556;DHT22;13447;57.174;-2.112;2022-08-14T06:42:53;15.00;99.90
25556;DHT22;13447;57.174;-2.112;2022-08-14T06:45:22;14.90;99.90
25556;DHT22;13447;57.174;-2.112;2022-08-14T06:47:52;15.00;99.90
25556;DHT22;13447;57.174;-2.112;2022-08-14T06:50:22;15.00;99.90
25556;DHT22;13447;57.174;-2.112;2022-08-14T06:52:54;15.10;99.90
25556;DHT22;13447;57.174;-2.112;2022-08-14T06:55:22;15.20;99.90
25556;DHT22;13447;57.174;-2.112;2022-08-14T06:57:54;15.20;99.90
25556;DHT22;13447;57.174;-2.112;2022-08-14T07:00:27;15.20;99.90
25556;DHT22;13447;57.174;-2.112;2022-08-14T07:02:57;15.20;99.90
25556;DHT22;13447;57.174;-2.112;2022-08-14T07:05:47;15.20;99.90
25556;DHT22;13447;57.174;-2.112;2022-08-14T07:08:27;15.20;99.90
25556;DHT22;13447;57.174;-2.112;2022-08-14T07:10:59;15.20;99.90
25556;DHT22;13447;57.174;-2.112;2022-08-14T07:13:27;15.30;99.90
25556;DHT22;13447;57.174;-2.112;2022-08-14T07:15:57;15.30;99.90
25556;DHT22;13447;57.174;-2.112;2022-08-14T07:18:30;15.30;99.90
25556;DHT22;13447;57.174;-2.112;2022-08-14T07:20:59;15.30;99.90
25556;DHT22;13447;57.174;-2.112;2022-08-14T07:23:27;15.20;99.90
25556;DHT22;13447;57.174;-2.112;2022-08-14T07:25:58;15.30;99.90
25556;DHT22;13447;57.174;-2.112;2022-08-14T07:28:30;15.40;99.90
25556;DHT22;13447;57.174;-2.112;2022-08-14T07:31:09;15.50;99.90
25556;DHT22;13447;57.174;-2.112;2022-08-14T07:33:45;15.50;99.90
25556;DHT22;13447;57.174;-2.112;2022-08-14T07:36:17;15.70;99.90
25556;DHT22;13447;57.174;-2.112;2022-08-14T07:38:56;15.80;99.90
25556;DHT22;13447;57.174;-2.112;2022-08-14T07:41:23;15.90;99.90
25556;DHT22;13447;57.174;-2.112;2022-08-14T07:43:57;15.90;99.90
25556;DHT22;13447;57.174;-2.112;2022-08-14T07:46:29;15.90;99.90
25556;DHT22;13447;57.174;-2.112;2022-08-14T07:48:57;15.90;99.90
25556;DHT22;13447;57.174;-2.112;2022-08-14T07:51:25;16.00;99.90
25556;DHT22;13447;57.174;-2.112;2022-08-14T07:54:00;16.10;99.90
25556;DHT22;13447;57.174;-2.112;2022-08-14T07:56:29;16.10;99.90
25556;DHT22;13447;57.174;-2.112;2022-08-14T07:59:15;16.10;99.90
25556;DHT22;13447;57.174;-2.112;2022-08-14T08:01:44;16.10;99.90
25556;DHT22;13447;57.174;-2.112;2022-08-14T08:04:16;16.10;99.90
25556;DHT22;13447;57.174;-2.112;2022-08-14T08:06:51;16.00;99.90
25556;DHT22;13447;57.174;-2.112;2022-08-14T08:09:23;16.00;99.90
25556;DHT22;13447;57.174;-2.112;2022-08-14T08:11:59;15.90;99.90
25556;DHT22;13447;57.174;-2.112;2022-08-14T08:14:33;15.90;99.90
25556;DHT22;13447;57.174;-2.112;2022-08-14T08:17:22;15.90;99.90
25556;DHT22;13447;57.174;-2.112;2022-08-14T08:19:49;16.00;99.90
25556;DHT22;13447;57.174;-2.112;2022-08-14T08:22:17;16.00;99.90
25556;DHT22;13447;57.174;-2.112;2022-08-14T08:24:47;16.00;99.90
25556;DHT22;13447;57.174;-2.112;2022-08-14T08:27:17;16.00;99.90
25556;DHT22;13447;57.174;-2.112;2022-08-14T08:30:05;16.10;99.90
25556;DHT22;13447;57.174;-2.112;2022-08-14T08:32:44;16.30;99.90
25556;DHT22;13447;57.174;-2.112;2022-08-14T08:35:19;16.30;99.90
25556;DHT22;13447;57.174;-2.112;2022-08-14T08:37:49;16.40;99.90
25556;DHT22;13447;57.174;-2.112;2022-08-14T08:40:52;16.50;99.90
25556;DHT22;13447;57.174;-2.112;2022-08-14T08:43:26;16.70;99.90
25556;DHT22;13447;57.174;-2.112;2022-08-14T08:46:05;16.90;99.90
25556;DHT22;13447;57.174;-2.112;2022-08-14T08:48:52;17.00;99.90
25556;DHT22;13447;57.174;-2.112;2022-08-14T08:51:29;17.30;99.90
25556;DHT22;13447;57.174;-2.112;2022-08-14T08:54:11;17.30;99.90
25556;DHT22;13447;57.174;-2.112;2022-08-14T08:56:50;17.30;99.90
25556;DHT22;13447;57.174;-2.112;2022-08-14T09:02:08;17.30;99.90
25556;DHT22;13447;57.174;-2.112;2022-08-14T09:04:41;17.20;99.90
25556;DHT22;13447;57.174;-2.112;2022-08-14T09:07:28;17.10;99.90
25556;DHT22;13447;57.174;-2.112;2022-08-14T09:09:57;17.10;99.90
25556;DHT22;13447;57.174;-2.112;2022-08-14T09:12:30;17.00;99.90
25556;DHT22;13447;57.174;-2.112;2022-08-14T09:15:05;17.10;99.90
25556;DHT22;13447;57.174;-2.112;2022-08-14T09:17:39;17.00;99.90
25556;DHT22;13447;57.174;-2.112;2022-08-14T09:20:09;17.20;99.90
25556;DHT22;13447;57.174;-2.112;2022-08-14T09:22:39;17.20;99.90
25556;DHT22;13447;57.174;-2.112;2022-08-14T09:25:15;17.40;99.90
25556;DHT22;13447;57.174;-2.112;2022-08-14T09:27:45;17.40;99.90
25556;DHT22;13447;57.174;-2.112;2022-08-14T09:30:12;17.60;99.90
25556;DHT22;13447;57.174;-2.112;2022-08-14T09:41:52;17.60;99.90
25556;DHT22;13447;57.174;-2.112;2022-08-14T09:47:54;17.80;99.90
25556;DHT22;13447;57.174;-2.112;2022-08-14T09:50:28;17.90;99.90
25556;DHT22;13447;57.174;-2.112;2022-08-14T09:53:00;17.90;99.90
25556;DHT22;13447;57.174;-2.112;2022-08-14T09:55:32;18.10;99.90
25556;DHT22;13447;57.174;-2.112;2022-08-14T09:58:10;18.00;99.90
25556;DHT22;13447;57.174;-2.112;2022-08-14T10:00:55;18.00;99.90
25556;DHT22;13447;57.174;-2.112;2022-08-14T10:03:33;18.00;99.90
25556;DHT22;13447;57.174;-2.112;2022-08-14T10:06:12;18.00;99.90
25556;DHT22;13447;57.174;-2.112;2022-08-14T10:08:46;17.90;99.90
25556;DHT22;13447;57.174;-2.112;2022-08-14T10:11:18;17.90;99.90
25556;DHT22;13447;57.174;-2.112;2022-08-14T10:13:51;17.90;99.90
25556;DHT22;13447;57.174;-2.112;2022-08-14T10:16:23;18.00;99.90
25556;DHT22;13447;57.174;-2.112;2022-08-14T10:19:10;18.10;99.90
25556;DHT22;13447;57.174;-2.112;2022-08-14T10:21:43;18.20;99.90
25556;DHT22;13447;57.174;-2.112;2022-08-14T10:24:36;18.30;99.90
25556;DHT22;13447;57.174;-2.112;2022-08-14T10:27:24;18.30;99.90
25556;DHT22;13447;57.174;-2.112;2022-08-14T10:29:54;18.40;99.90
25556;DHT22;13447;57.174;-2.112;2022-08-14T10:32:25;18.30;99.90
25556;DHT22;13447;57.174;-2.112;2022-08-14T10:35:08;18.20;99.90
25556;DHT22;13447;57.174;-2.112;2022-08-14T10:37:48;18.40;99.90
25556;DHT22;13447;57.174;-2.112;2022-08-14T10:40:31;18.10;99.90
25556;DHT22;13447;57.174;-2.112;2022-08-14T10:43:18;18.10;99.90
25556;DHT22;13447;57.174;-2.112;2022-08-14T10:45:55;18.30;99.90
25556;DHT22;13447;57.174;-2.112;2022-08-14T10:48:55;18.30;99.90
25556;DHT22;13447;57.174;-2.112;2022-08-14T10:51:27;19.00;99.90
25556;DHT22;13447;57.174;-2.112;2022-08-14T10:54:05;19.70;99.90
25556;DHT22;13447;57.174;-2.112;2022-08-14T10:56:57;20.20;99.90
25556;DHT22;13447;57.174;-2.112;2022-08-14T10:59:25;20.60;99.90
25556;DHT22;13447;57.174;-2.112;2022-08-14T11:02:02;20.60;99.90
25556;DHT22;13447;57.174;-2.112;2022-08-14T11:04:29;20.40;99.90
25556;DHT22;13447;57.174;-2.112;2022-08-14T11:06:57;20.10;99.90
25556;DHT22;13447;57.174;-2.112;2022-08-14T11:09:25;20.50;99.90
25556;DHT22;13447;57.174;-2.112;2022-08-14T11:11:58;20.50;99.90
25556;DHT22;13447;57.174;-2.112;2022-08-14T11:14:56;20.80;99.90
25556;DHT22;13447;57.174;-2.112;2022-08-14T11:17:30;21.10;99.90
25556;DHT22;13447;57.174;-2.112;2022-08-14T11:20:00;21.00;99.90
25556;DHT22;13447;57.174;-2.112;2022-08-14T11:22:30;20.90;99.90
25556;DHT22;13447;57.174;-2.112;2022-08-14T11:25:20;20.60;99.90
25556;DHT22;13447;57.174;-2.112;2022-08-14T11:27:54;20.80;99.90
25556;DHT22;13447;57.174;-2.112;2022-08-14T11:30:24;20.70;99.90
25556;DHT22;13447;57.174;-2.112;2022-08-14T11:33:11;21.10;99.90
25556;DHT22;13447;57.174;-2.112;2022-08-14T11:35:38;21.70;99.90
25556;DHT22;13447;57.174;-2.112;2022-08-14T11:38:13;21.50;99.90
25556;DHT22;13447;57.174;-2.112;2022-08-14T11:40:43;21.40;99.90
25556;DHT22;13447;57.174;-2.112;2022-08-14T11:43:14;21.70;99.90
25556;DHT22;13447;57.174;-2.112;2022-08-14T11:45:45;21.90;99.90
25556;DHT22;13447;57.174;-2.112;2022-08-14T11:48:22;22.00;99.80
25556;DHT22;13447;57.174;-2.112;2022-08-14T11:51:18;21.70;99.90
25556;DHT22;13447;57.174;-2.112;2022-08-14T11:54:00;22.30;99.60
25556;DHT22;13447;57.174;-2.112;2022-08-14T11:56:34;22.50;98.90
25556;DHT22;13447;57.174;-2.112;2022-08-14T11:59:02;22.60;99.00
25556;DHT22;13447;57.174;-2.112;2022-08-14T12:01:29;22.90;96.90
25556;DHT22;13447;57.174;-2.112;2022-08-14T12:04:09;23.20;96.70
25556;DHT22;13447;57.174;-2.112;2022-08-14T12:06:57;23.50;97.20
25556;DHT22;13447;57.174;-2.112;2022-08-14T12:09:35;23.60;94.80
25556;DHT22;13447;57.174;-2.112;2022-08-14T12:12:17;23.50;95.20
25556;DHT22;13447;57.174;-2.112;2022-08-14T12:15:05;23.70;94.30
25556;DHT22;13447;57.174;-2.112;2022-08-14T12:17:45;24.10;93.50
25556;DHT22;13447;57.174;-2.112;2022-08-14T12:20:17;24.00;94.00
25556;DHT22;13447;57.174;-2.112;2022-08-14T12:22:59;24.10;92.80
25556;DHT22;13447;57.174;-2.112;2022-08-14T12:25:26;24.60;91.30
25556;DHT22;13447;57.174;-2.112;2022-08-14T12:27:56;24.40;91.80
25556;DHT22;13447;57.174;-2.112;2022-08-14T12:30:39;24.70;91.50
25556;DHT22;13447;57.174;-2.112;2022-08-14T12:33:23;24.70;91.10
25556;DHT22;13447;57.174;-2.112;2022-08-14T12:36:06;24.40;90.20
25556;DHT22;13447;57.174;-2.112;2022-08-14T12:38:39;24.20;91.20
25556;DHT22;13447;57.174;-2.112;2022-08-14T12:41:13;24.20;91.00
25556;DHT22;13447;57.174;-2.112;2022-08-14T12:43:52;24.10;91.00
25556;DHT22;13447;57.174;-2.112;2022-08-14T12:46:23;24.30;90.50
25556;DHT22;13447;57.174;-2.112;2022-08-14T12:48:59;24.30;91.40
25556;DHT22;13447;57.174;-2.112;2022-08-14T12:51:28;24.10;92.10
25556;DHT22;13447;57.174;-2.112;2022-08-14T12:53:57;24.20;91.90
25556;DHT22;13447;57.174;-2.112;2022-08-14T12:56:28;24.30;90.90
25556;DHT22;13447;57.174;-2.112;2022-08-14T12:59:00;24.00;91.30
25556;DHT22;13447;57.174;-2.112;2022-08-14T13:01:30;24.30;90.90
25556;DHT22;13447;57.174;-2.112;2022-08-14T13:04:17;24.70;90.00
25556;DHT22;13447;57.174;-2.112;2022-08-14T13:06:48;24.70;95.40
25556;DHT22;13447;57.174;-2.112;2022-08-14T13:09:18;24.70;98.30
25556;DHT22;13447;57.174;-2.112;2022-08-14T13:11:49;24.90;95.80
25556;DHT22;13447;57.174;-2.112;2022-08-14T13:14:37;24.80;95.50
25556;DHT22;13447;57.174;-2.112;2022-08-14T13:17:04;24.70;90.10
25556;DHT22;13447;57.174;-2.112;2022-08-14T13:19:38;24.40;89.00
25556;DHT22;13447;57.174;-2.112;2022-08-14T13:22:07;24.60;90.40
25556;DHT22;13447;57.174;-2.112;2022-08-14T13:24:46;24.20;90.70
25556;DHT22;13447;57.174;-2.112;2022-08-14T13:27:13;23.80;90.50
25556;DHT22;13447;57.174;-2.112;2022-08-14T13:29:44;23.60;91.20
25556;DHT22;13447;57.174;-2.112;2022-08-14T13:32:13;23.70;90.90
25556;DHT22;13447;57.174;-2.112;2022-08-14T13:39:51;22.00;95.10
25556;DHT22;13447;57.174;-2.112;2022-08-14T13:42:23;21.50;98.80
25556;DHT22;13447;57.174;-2.112;2022-08-14T13:44:59;21.50;99.90
25556;DHT22;13447;57.174;-2.112;2022-08-14T14:18:49;19.60;99.90
25556;DHT22;13447;57.174;-2.112;2022-08-14T14:21:23;19.50;99.90
25556;DHT22;13447;57.174;-2.112;2022-08-14T14:23:54;19.60;99.90
25556;DHT22;13447;57.174;-2.112;2022-08-14T14:26:22;19.80;99.90
25556;DHT22;13447;57.174;-2.112;2022-08-14T14:28:54;19.80;99.90
25556;DHT22;13447;57.174;-2.112;2022-08-14T14:31:27;19.80;99.90
25556;DHT22;13447;57.174;-2.112;2022-08-14T14:34:01;19.90;99.90
25556;DHT22;13447;57.174;-2.112;2022-08-14T14:36:39;19.90;99.90
25556;DHT22;13447;57.174;-2.112;2022-08-14T14:39:15;19.80;99.90
25556;DHT22;13447;57.174;-2.112;2022-08-14T14:41:50;19.80;99.90
25556;DHT22;13447;57.174;-2.112;2022-08-14T14:44:24;19.70;99.90
25556;DHT22;13447;57.174;-2.112;2022-08-14T14:46:52;19.70;99.90
25556;DHT22;13447;57.174;-2.112;2022-08-14T14:49:23;19.70;99.90
25556;DHT22;13447;57.174;-2.112;2022-08-14T14:52:09;19.90;99.90
25556;DHT22;13447;57.174;-2.112;2022-08-14T14:54:49;20.10;99.90
25556;DHT22;13447;57.174;-2.112;2022-08-14T14:57:17;20.10;99.90
25556;DHT22;13447;57.174;-2.112;2022-08-14T14:59:44;20.00;99.90
25556;DHT22;13447;57.174;-2.112;2022-08-14T15:02:37;20.00;99.90
25556;DHT22;13447;57.174;-2.112;2022-08-14T15:05:08;19.90;99.90
25556;DHT22;13447;57.174;-2.112;2022-08-14T15:07:38;19.70;99.90
25556;DHT22;13447;57.174;-2.112;2022-08-14T15:10:07;19.70;99.90
25556;DHT22;13447;57.174;-2.112;2022-08-14T15:12:54;19.70;99.90
25556;DHT22;13447;57.174;-2.112;2022-08-14T15:15:25;19.60;99.90
25556;DHT22;13447;57.174;-2.112;2022-08-14T15:17:53;19.50;99.90
25556;DHT22;13447;57.174;-2.112;2022-08-14T15:20:21;19.60;99.90
25556;DHT22;13447;57.174;-2.112;2022-08-14T15:22:57;19.60;99.90
25556;DHT22;13447;57.174;-2.112;2022-08-14T15:25:33;19.50;99.90
25556;DHT22;13447;57.174;-2.112;2022-08-14T15:28:01;19.60;99.90
25556;DHT22;13447;57.174;-2.112;2022-08-14T15:30:30;19.60;99.90
25556;DHT22;13447;57.174;-2.112;2022-08-14T15:32:58;19.50;99.90
25556;DHT22;13447;57.174;-2.112;2022-08-14T15:35:26;19.60;99.90
25556;DHT22;13447;57.174;-2.112;2022-08-14T15:38:03;19.70;99.90
25556;DHT22;13447;57.174;-2.112;2022-08-14T15:40:40;19.70;99.90
25556;DHT22;13447;57.174;-2.112;2022-08-14T15:43:10;19.70;99.90
25556;DHT22;13447;57.174;-2.112;2022-08-14T15:45:39;19.70;99.90
25556;DHT22;13447;57.174;-2.112;2022-08-14T15:48:08;19.60;99.90
25556;DHT22;13447;57.174;-2.112;2022-08-14T15:50:48;19.70;99.90
25556;DHT22;13447;57.174;-2.112;2022-08-14T15:53:17;19.80;99.90
25556;DHT22;13447;57.174;-2.112;2022-08-14T15:55:46;19.70;99.90
25556;DHT22;13447;57.174;-2.112;2022-08-14T15:58:18;19.80;99.90
25556;DHT22;13447;57.174;-2.112;2022-08-14T16:00:47;19.60;99.90
25556;DHT22;13447;57.174;-2.112;2022-08-14T16:03:33;19.70;99.90
25556;DHT22;13447;57.174;-2.112;2022-08-14T16:06:13;19.70;99.90
25556;DHT22;13447;57.174;-2.112;2022-08-14T16:08:46;19.80;99.90
25556;DHT22;13447;57.174;-2.112;2022-08-14T16:11:20;19.70;99.90
25556;DHT22;13447;57.174;-2.112;2022-08-14T16:13:48;19.60;99.90
25556;DHT22;13447;57.174;-2.112;2022-08-14T16:19:04;19.70;99.90
25556;DHT22;13447;57.174;-2.112;2022-08-14T16:21:38;19.60;99.90
25556;DHT22;13447;57.174;-2.112;2022-08-14T16:24:06;19.60;99.90
25556;DHT22;13447;57.174;-2.112;2022-08-14T16:26:56;19.70;99.90
25556;DHT22;13447;57.174;-2.112;2022-08-14T16:29:29;19.80;99.90
25556;DHT22;13447;57.174;-2.112;2022-08-14T16:32:00;19.60;99.90
25556;DHT22;13447;57.174;-2.112;2022-08-14T16:34:47;19.50;99.90
25556;DHT22;13447;57.174;-2.112;2022-08-14T16:37:20;19.40;99.90
25556;DHT22;13447;57.174;-2.112;2022-08-14T16:39:48;19.40;99.90
25556;DHT22;13447;57.174;-2.112;2022-08-14T16:42:21;19.40;99.90
25556;DHT22;13447;57.174;-2.112;2022-08-14T16:45:09;19.50;99.90
25556;DHT22;13447;57.174;-2.112;2022-08-14T16:47:39;19.40;99.90
25556;DHT22;13447;57.174;-2.112;2022-08-14T16:50:07;19.40;99.90
25556;DHT22;13447;57.174;-2.112;2022-08-14T16:52:41;19.50;99.90
25556;DHT22;13447;57.174;-2.112;2022-08-14T16:55:21;19.40;99.90
25556;DHT22;13447;57.174;-2.112;2022-08-14T16:57:56;19.30;99.90
25556;DHT22;13447;57.174;-2.112;2022-08-14T17:00:43;19.40;99.90